Time;durP1;ratioP1;P1;durP2;ratioP2;P2;SDS_P1;SDS_P2;PMS_P1;PMS_P2;Temp;Humidity;BMP_temperature;BMP_pressure;BME280_temperature;BME280_humidity;BME280_pressure;Samples;Min_cycle;Max_cycle;Signal;HPM_P1;HPM_P2
2023/10/19 00:00:44;;;;;;;0.10;0.10;;;;;;;9.26;48.12;101202.50;5014044;28;20445;-81
2023/10/19 00:03:11;;;;;;;0.30;0.30;;;;;;;9.22;48.30;101202.94;5012941;28;20391;-80
2023/10/19 00:05:39;;;;;;;0.20;0.20;;;;;;;9.06;48.57;101203.63;5012576;28;20384;-80
2023/10/19 00:08:15;;;;;;;0.20;0.20;;;;;;;8.96;49.29;101204.47;5026825;28;20395;-81
2023/10/19 00:11:07;;;;;;;0.50;0.30;;;;;;;8.93;49.50;101209.22;5025343;28;20427;-80
2023/10/19 00:13:54;;;;;;;0.10;0.10;;;;;;;8.75;50.08;101202.09;5026544;28;20395;-79
2023/10/19 00:16:36;;;;;;;0.20;0.20;;;;;;;8.68;50.16;101202.81;5017092;28;20449;-78
2023/10/19 00:19:03;;;;;;;0.40;0.40;;;;;;;8.56;50.80;101196.88;5012161;28;20895;-78
2023/10/19 00:21:29;;;;;;;0.20;0.20;;;;;;;8.51;50.89;101209.69;5011247;28;20384;-78
2023/10/19 00:24:04;;;;;;;0.43;0.17;;;;;;;8.41;51.09;101202.59;5011948;28;20575;-79
2023/10/19 00:26:30;;;;;;;0.15;0.15;;;;;;;8.48;50.41;101209.97;5011140;28;20392;-79
2023/10/19 00:28:56;;;;;;;0.22;0.22;;;;;;;8.47;50.66;101206.50;5010845;28;20399;-78
2023/10/19 00:31:28;;;;;;;0.10;0.10;;;;;;;8.28;51.40;101207.34;5011776;28;20472;-80
2023/10/19 00:33:56;;;;;;;0.55;0.55;;;;;;;8.24;51.07;101203.31;5011386;28;20435;-82
2023/10/19 00:36:23;;;;;;;0.30;0.30;;;;;;;8.29;50.93;101195.81;5015031;28;20404;-80
2023/10/19 00:41:29;;;;;;;0.60;0.60;;;;;;;8.22;51.62;101198.19;5011960;28;20404;-80
2023/10/19 00:44:16;;;;;;;0.10;0.10;;;;;;;8.34;51.10;101208.59;5009329;28;20747;-79
2023/10/19 00:49:12;;;;;;;1.90;1.00;;;;;;;8.32;51.14;101203.47;5011295;28;20499;-80
2023/10/19 00:51:54;;;;;;;0.20;0.20;;;;;;;8.28;51.14;101201.22;5009398;28;20414;-80
2023/10/19 00:54:33;;;;;;;0.20;0.20;;;;;;;8.19;51.52;101197.63;5009380;28;20458;-79
2023/10/19 00:57:45;;;;;;;0.10;0.10;;;;;;;8.15;51.85;101198.91;5009395;28;20925;-79
2023/10/19 00:59:53;;;;;;;1.10;0.50;;;;;;;8.13;51.75;101206.97;5009558;28;20388;-80
2023/10/19 01:02:28;;;;;;;0.10;0.10;;;;;;;7.95;52.65;101204.22;5008908;28;20392;-80
2023/10/19 01:05:07;;;;;;;1.20;0.70;;;;;;;7.92;52.81;101203.66;5009555;28;20515;-81
2023/10/19 01:07:37;;;;;;;0.10;0.10;;;;;;;8.10;52.19;101198.50;5008298;28;20903;-81
2023/10/19 01:10:20;;;;;;;0.20;0.20;;;;;;;8.09;52.58;101199.47;5008634;28;20558;-80
2023/10/19 01:12:51;;;;;;;0.30;0.30;;;;;;;8.26;52.12;101192.63;5008915;28;20880;-80
2023/10/19 01:15:31;;;;;;;0.20;0.20;;;;;;;8.38;51.50;101189.66;5008665;28;20472;-80
2023/10/19 01:17:58;;;;;;;0.30;0.30;;;;;;;8.38;51.32;101194.94;5008466;28;20899;-80
2023/10/19 01:28:47;;;;;;;0.20;0.20;;;;;;;8.42;52.05;101177.84;5009518;28;21013;-80
2023/10/19 01:31:22;;;;;;;0.10;0.10;;;;;;;8.46;51.89;101185.50;5008898;28;20443;-80
2023/10/19 01:33:49;;;;;;;0.25;0.25;;;;;;;8.51;51.58;101168.25;5008090;28;20388;-81
2023/10/19 01:36:15;;;;;;;0.10;0.10;;;;;;;8.56;51.51;101165.16;5008116;28;20426;-82
2023/10/19 01:38:48;;;;;;;0.20;0.20;;;;;;;8.67;51.30;101166.78;5009418;28;20783;-82
2023/10/19 01:41:15;;;;;;;0.10;0.10;;;;;;;8.76;50.95;101164.09;5009101;28;20392;-82
2023/10/19 01:43:54;;;;;;;0.10;0.10;;;;;;;8.85;51.06;101166.84;5009160;28;20433;-82
2023/10/19 01:46:29;;;;;;;0.10;0.10;;;;;;;8.78;50.75;101162.13;5008031;28;20479;-81
2023/10/19 01:48:57;;;;;;;0.10;0.10;;;;;;;8.77;50.87;101167.59;5009000;28;20763;-81
2023/10/19 01:51:28;;;;;;;0.10;0.10;;;;;;;8.78;51.01;101171.88;5009353;28;20408;-81
2023/10/19 01:53:58;;;;;;;0.55;0.25;;;;;;;8.89;50.62;101176.97;5008971;28;20380;-80
2023/10/19 01:56:24;;;;;;;0.10;0.10;;;;;;;9.03;50.10;101185.38;5010356;28;20974;-80
2023/10/19 01:58:54;;;;;;;0.30;0.30;;;;;;;9.03;50.43;101180.09;5012018;28;20403;-80
2023/10/19 02:01:20;;;;;;;0.10;0.10;;;;;;;9.04;50.18;101172.03;5012113;28;20388;-81
2023/10/19 02:03:54;;;;;;;0.20;0.20;;;;;;;9.13;49.81;101176.41;5012631;28;20491;-81
2023/10/19 02:06:21;;;;;;;0.10;0.10;;;;;;;9.15;49.55;101169.16;5011702;28;20412;-81
2023/10/19 02:08:59;;;;;;;0.17;0.17;;;;;;;9.22;49.63;101161.47;5028201;28;20764;-78
2023/10/19 02:11:26;;;;;;;0.10;0.10;;;;;;;9.24;49.31;101163.94;5011405;28;20465;-80
2023/10/19 02:13:59;;;;;;;0.10;0.10;;;;;;;9.28;49.28;101174.09;5020281;28;20412;-80
2023/10/19 02:16:27;;;;;;;0.20;0.20;;;;;;;9.27;49.30;101166.28;5018787;28;20450;-80
2023/10/19 02:18:53;;;;;;;0.10;0.10;;;;;;;9.26;49.16;101170.75;5012018;28;20403;-84
2023/10/19 02:21:22;;;;;;;0.10;0.10;;;;;;;9.24;48.99;101167.44;5011964;28;20392;-84
2023/10/19 02:23:51;;;;;;;0.20;0.20;;;;;;;9.15;49.90;101166.50;5012296;28;20466;-82
2023/10/19 02:26:22;;;;;;;0.30;0.30;;;;;;;9.07;49.60;101157.66;5011881;28;20400;-83
2023/10/19 02:28:50;;;;;;;1.10;0.70;;;;;;;9.03;49.89;101167.72;5011894;28;20414;-83
2023/10/19 02:31:21;;;;;;;0.10;0.10;;;;;;;8.93;50.26;101165.13;5028285;28;20428;-83
2023/10/19 02:34:03;;;;;;;0.30;0.30;;;;;;;8.86;50.75;101168.50;5011657;28;20408;-84
2023/10/19 02:36:30;;;;;;;0.57;0.57;;;;;;;8.86;51.02;101172.00;5022705;28;20384;-81
2023/10/19 02:38:59;;;;;;;0.83;0.83;;;;;;;8.78;51.61;101172.69;5011767;28;20415;-83
2023/10/19 02:41:26;;;;;;;0.10;0.10;;;;;;;8.88;51.24;101167.38;4994857;28;20396;-83
2023/10/19 02:44:03;;;;;;;0.10;0.10;;;;;;;8.97;50.31;101163.03;5030810;28;20391;-80
2023/10/19 02:46:38;;;;;;;0.30;0.30;;;;;;;9.03;50.48;101149.19;5011049;28;20400;-81
2023/10/19 02:49:14;;;;;;;0.45;0.45;;;;;;;9.12;50.34;101158.06;4993854;28;20922;-81
2023/10/19 02:51:45;;;;;;;0.60;0.40;;;;;;;9.24;50.20;101159.50;5010282;28;20487;-82
2023/10/19 02:54:57;;;;;;;0.10;0.10;;;;;;;9.30;50.00;101150.13;5009602;28;20390;-82
2023/10/19 02:57:02;;;;;;;0.10;0.10;;;;;;;9.29;50.00;101164.31;5008985;28;20809;-82
2023/10/19 02:59:32;;;;;;;0.10;0.10;;;;;;;9.27;49.97;101175.06;5009682;28;20986;-81
2023/10/19 03:04:41;;;;;;;0.30;0.30;;;;;;;9.40;49.98;101169.41;5009682;28;20423;-80
2023/10/19 03:07:13;;;;;;;0.20;0.20;;;;;;;9.52;49.90;101173.47;4993344;28;20396;-81
2023/10/19 03:09:38;;;;;;;0.20;0.20;;;;;;;9.47;49.84;101156.38;5010924;28;20446;-84
2023/10/19 03:12:14;;;;;;;0.10;0.10;;;;;;;9.56;50.15;101135.16;5026959;28;20505;-81
2023/10/19 03:14:50;;;;;;;0.17;0.17;;;;;;;9.61;49.64;101132.03;5011849;28;20514;-81
2023/10/19 03:17:16;;;;;;;0.10;0.10;;;;;;;9.63;49.34;101129.22;5012075;28;20396;-80
2023/10/19 03:19:42;;;;;;;0.10;0.10;;;;;;;9.67;49.29;101135.88;5010459;28;20493;-80
2023/10/19 03:22:08;;;;;;;1.10;1.00;;;;;;;9.52;49.46;101143.53;5011941;28;20392;-81
2023/10/19 03:24:43;;;;;;;0.85;0.85;;;;;;;9.44;50.34;101138.19;5010729;28;20475;-82
2023/10/19 03:27:22;;;;;;;0.20;0.20;;;;;;;9.60;49.96;101138.31;5010761;28;20391;-81
2023/10/19 03:29:54;;;;;;;0.22;0.22;;;;;;;9.68;49.71;101129.59;5010651;28;20454;-80
2023/10/19 03:32:27;;;;;;;0.20;0.20;;;;;;;9.71;49.78;101137.25;4994731;28;21047;-80
2023/10/19 03:34:55;;;;;;;0.10;0.10;;;;;;;9.72;49.46;101128.31;5028922;28;20444;-81
2023/10/19 03:37:29;;;;;;;0.10;0.10;;;;;;;9.77;49.33;101112.78;5024437;28;21071;-80
2023/10/19 03:39:58;;;;;;;0.15;0.15;;;;;;;9.76;49.39;101108.50;5011615;28;20459;-80
2023/10/19 03:42:27;;;;;;;0.30;0.30;;;;;;;9.74;49.66;101119.25;5009070;28;20806;-80
2023/10/19 03:44:57;;;;;;;0.50;0.50;;;;;;;9.56;50.23;101131.66;5008844;28;20438;-79
2023/10/19 03:47:43;;;;;;;0.40;0.40;;;;;;;9.42;50.83;101126.91;5008497;28;20467;-83
2023/10/19 03:50:20;;;;;;;0.28;0.28;;;;;;;9.30;51.56;101137.72;5009822;28;20418;-80
2023/10/19 03:52:46;;;;;;;0.40;0.40;;;;;;;9.28;51.04;101138.88;5026332;28;20446;-78
2023/10/19 03:55:15;;;;;;;0.40;0.40;;;;;;;8.92;51.68;101149.41;5026701;28;20441;-79
2023/10/19 03:57:50;;;;;;;0.28;0.28;;;;;;;8.57;51.87;101132.47;5010764;28;20943;-80
2023/10/19 04:00:16;;;;;;;0.40;0.40;;;;;;;8.74;51.83;101107.06;5009419;28;20493;-79
2023/10/19 04:02:42;;;;;;;0.13;0.13;;;;;;;8.93;51.45;101101.69;5027000;28;20399;-77
2023/10/19 04:05:20;;;;;;;1.00;1.00;;;;;;;9.14;50.32;101105.81;5023120;28;20450;-77
2023/10/19 04:07:58;;;;;;;0.20;0.20;;;;;;;9.25;50.39;101089.72;5018561;28;20542;-78
2023/10/19 04:10:38;;;;;;;0.10;0.10;;;;;;;9.43;50.01;101089.72;5021489;28;20408;-80
2023/10/19 04:13:04;;;;;;;0.20;0.20;;;;;;;9.56;49.67;101089.31;5008227;28;21003;-79
2023/10/19 04:15:33;;;;;;;0.10;0.10;;;;;;;9.60;49.34;101080.09;5025254;28;20414;-79
2023/10/19 04:18:00;;;;;;;1.10;0.70;;;;;;;9.53;49.78;101090.47;5024501;28;20396;-80
2023/10/19 04:20:29;;;;;;;0.10;0.10;;;;;;;9.38;50.20;101087.53;5024866;28;20395;-79
2023/10/19 04:23:10;;;;;;;0.20;0.20;;;;;;;9.25;50.42;101086.25;5010063;28;20404;-83
2023/10/19 04:25:39;;;;;;;0.28;0.28;;;;;;;9.35;50.48;101094.94;5007546;28;20977;-80
2023/10/19 04:28:10;;;;;;;0.13;0.13;;;;;;;9.48;49.77;101092.72;5009373;28;20890;-81
2023/10/19 04:30:38;;;;;;;0.50;0.50;;;;;;;9.62;49.64;101090.53;5011131;28;20521;-81
2023/10/19 04:33:08;;;;;;;0.13;0.13;;;;;;;9.69;49.51;101084.47;5026641;28;20408;-81
2023/10/19 04:35:35;;;;;;;0.20;0.20;;;;;;;9.80;49.25;101086.03;5023275;28;20404;-82
2023/10/19 04:38:01;;;;;;;0.57;0.38;;;;;;;9.86;48.74;101098.63;4988034;28;20419;-82
2023/10/19 04:40:27;;;;;;;0.35;0.35;;;;;;;9.87;49.46;101097.66;5009083;28;20415;-86
2023/10/19 04:42:54;;;;;;;0.25;0.25;;;;;;;9.87;49.45;101091.53;4993691;28;20767;-80
2023/10/19 04:45:20;;;;;;;0.25;0.25;;;;;;;9.74;49.38;101095.41;5009881;28;20396;-81
2023/10/19 04:47:51;;;;;;;0.30;0.30;;;;;;;9.72;49.90;101083.31;4993587;28;20732;-81
2023/10/19 04:50:21;;;;;;;0.40;0.40;;;;;;;9.80;49.60;101086.03;5028366;28;20389;-82
2023/10/19 04:52:47;;;;;;;0.20;0.20;;;;;;;9.93;49.30;101089.06;5012508;28;20443;-81
2023/10/19 04:55:13;;;;;;;0.20;0.20;;;;;;;9.91;49.36;101080.44;5010829;28;20389;-81
2023/10/19 04:57:39;;;;;;;0.53;0.53;;;;;;;9.76;49.74;101093.44;5016755;28;20399;-80
2023/10/19 05:00:05;;;;;;;0.20;0.20;;;;;;;9.70;50.06;101103.81;5011390;28;20414;-80
2023/10/19 05:02:31;;;;;;;0.38;0.38;;;;;;;9.63;50.25;101103.59;5026363;28;20978;-81
2023/10/19 05:04:57;;;;;;;0.20;0.20;;;;;;;9.72;50.26;101099.19;5009952;28;20392;-81
2023/10/19 05:07:24;;;;;;;0.10;0.10;;;;;;;9.85;50.25;101096.13;5026025;28;20771;-81
2023/10/19 05:09:50;;;;;;;0.30;0.30;;;;;;;9.93;49.53;101104.13;5010409;28;20922;-78
2023/10/19 05:12:16;;;;;;;0.20;0.20;;;;;;;9.99;49.48;101106.16;5025764;28;20442;-81
2023/10/19 05:14:43;;;;;;;0.40;0.38;;;;;;;9.95;49.79;101115.41;5011607;28;20407;-80
2023/10/19 05:17:12;;;;;;;0.20;0.20;;;;;;;9.93;49.31;101104.13;5026909;28;20789;-81
2023/10/19 05:19:40;;;;;;;0.20;0.20;;;;;;;10.11;49.47;101109.38;5011190;28;20391;-81
2023/10/19 05:22:10;;;;;;;0.20;0.20;;;;;;;10.11;49.36;101101.44;5010721;28;20483;-81
2023/10/19 05:24:37;;;;;;;0.50;0.50;;;;;;;10.03;49.48;101107.50;5010825;28;20964;-80
2023/10/19 05:27:04;;;;;;;0.20;0.20;;;;;;;9.98;49.61;101116.91;5027200;28;20462;-81
2023/10/19 05:29:33;;;;;;;0.60;0.60;;;;;;;9.71;50.74;101124.84;5010405;28;20415;-81
2023/10/19 05:32:02;;;;;;;0.30;0.30;;;;;;;9.71;50.32;101122.19;5009906;28;20428;-82
2023/10/19 05:34:35;;;;;;;1.05;1.00;;;;;;;9.75;50.60;101112.94;5011552;28;20475;-79
2023/10/19 05:37:02;;;;;;;0.50;0.50;;;;;;;9.84;50.04;101105.91;5025284;28;20392;-80
2023/10/19 05:39:31;;;;;;;0.30;0.30;;;;;;;9.86;49.84;101113.69;5010239;28;20888;-81
2023/10/19 05:42:00;;;;;;;1.10;0.50;;;;;;;9.86;49.70;101106.56;5009017;28;20911;-79
2023/10/19 05:44:27;;;;;;;0.22;0.22;;;;;;;9.85;50.36;101109.38;5009589;28;20461;-80
2023/10/19 05:46:54;;;;;;;0.32;0.32;;;;;;;9.80;51.24;101103.72;5010691;28;20427;-81
2023/10/19 05:49:23;;;;;;;0.40;0.40;;;;;;;9.89;51.06;101122.16;5010617;28;20380;-79
2023/10/19 05:51:48;;;;;;;1.02;1.02;;;;;;;9.70;52.79;101115.22;5012132;28;20438;-83
2023/10/19 05:54:15;;;;;;;0.70;0.70;;;;;;;9.59;53.06;101115.47;5011289;28;20396;-84
2023/10/19 05:56:43;;;;;;;0.20;0.20;;;;;;;9.65;53.17;101111.38;5014202;28;20391;-85
2023/10/19 05:59:10;;;;;;;0.30;0.30;;;;;;;9.86;53.04;101108.41;5012150;28;20384;-79
2023/10/19 06:01:41;;;;;;;0.30;0.30;;;;;;;9.94;52.99;101095.22;5009928;28;20402;-78
2023/10/19 06:04:07;;;;;;;0.30;0.30;;;;;;;9.82;53.15;101102.56;5009458;28;20495;-79
2023/10/19 06:06:34;;;;;;;0.50;0.50;;;;;;;9.92;52.92;101113.91;5009551;28;20863;-78
2023/10/19 06:09:02;;;;;;;0.65;0.47;;;;;;;9.65;54.52;101124.63;5008432;28;20399;-78
2023/10/19 06:11:42;;;;;;;1.13;1.13;;;;;;;9.66;54.89;101121.81;5025397;28;20446;-81
2023/10/19 06:14:13;;;;;;;0.40;0.40;;;;;;;9.91;53.37;101116.72;5009262;28;20407;-88
2023/10/19 06:16:39;;;;;;;0.88;0.88;;;;;;;9.99;53.47;101105.31;5009710;28;20830;-80
2023/10/19 06:19:20;;;;;;;0.40;0.40;;;;;;;10.29;52.73;101117.25;5010187;28;20886;-81
2023/10/19 06:21:46;;;;;;;0.60;0.60;;;;;;;10.21;52.77;101118.03;5010380;28;20392;-79
2023/10/19 06:24:14;;;;;;;0.47;0.47;;;;;;;10.34;52.35;101125.59;5008503;28;20477;-80
2023/10/19 06:26:43;;;;;;;0.50;0.50;;;;;;;10.31;52.47;101132.03;4992648;28;20404;-78
2023/10/19 06:29:08;;;;;;;0.40;0.40;;;;;;;10.39;52.11;101147.16;5008172;28;20384;-78
2023/10/19 06:31:34;;;;;;;2.30;2.20;;;;;;;10.51;51.97;101145.03;5023872;28;20454;-79
2023/10/19 06:34:00;;;;;;;0.43;0.43;;;;;;;10.69;51.56;101153.72;5009887;28;20824;-80
2023/10/19 06:36:31;;;;;;;0.47;0.47;;;;;;;10.62;51.04;101155.34;5008396;28;20407;-79
2023/10/19 06:38:57;;;;;;;1.05;0.95;;;;;;;10.65;51.08;101156.88;4992699;28;20895;-78
2023/10/19 06:41:24;;;;;;;0.70;0.57;;;;;;;10.65;51.21;101154.22;5008771;28;20539;-78
2023/10/19 06:43:51;;;;;;;1.00;1.00;;;;;;;10.66;51.01;101158.50;5011855;28;20436;-79
2023/10/19 06:46:16;;;;;;;0.60;0.60;;;;;;;10.64;50.68;101160.50;5011473;28;20787;-79
2023/10/19 06:48:42;;;;;;;0.38;0.38;;;;;;;10.85;50.73;101158.25;5029712;28;20912;-78
2023/10/19 06:51:08;;;;;;;0.55;0.55;;;;;;;11.08;50.45;101160.31;5029881;28;20489;-79
2023/10/19 06:53:38;;;;;;;0.30;0.30;;;;;;;11.23;49.57;101153.38;4998658;28;20398;-78
2023/10/19 06:56:06;;;;;;;0.30;0.30;;;;;;;11.32;49.16;101156.06;5034496;28;20402;-77
2023/10/19 06:58:36;;;;;;;0.60;0.60;;;;;;;11.31;49.17;101155.22;5031013;28;20397;-78
2023/10/19 07:01:08;;;;;;;0.40;0.40;;;;;;;11.44;48.93;101154.75;4971320;28;20838;-76
2023/10/19 07:03:35;;;;;;;0.70;0.70;;;;;;;11.52;48.51;101161.88;4971098;28;20482;-79
2023/10/19 07:06:07;;;;;;;0.63;0.63;;;;;;;11.61;48.40;101150.25;4971239;28;20399;-79
2023/10/19 07:08:33;;;;;;;0.40;0.40;;;;;;;11.65;48.20;101143.66;4956635;28;20396;-80
2023/10/19 07:11:02;;;;;;;1.15;1.15;;;;;;;11.55;48.30;101145.63;4971962;28;20415;-80
2023/10/19 07:13:29;;;;;;;0.60;0.60;;;;;;;11.61;47.98;101156.44;4955449;28;20454;-80
2023/10/19 07:15:56;;;;;;;0.20;0.20;;;;;;;11.67;48.03;101155.75;4972955;28;20532;-81
2023/10/19 07:18:23;;;;;;;0.50;0.50;;;;;;;11.83;47.94;101154.91;4943314;28;20400;-79
2023/10/19 07:21:02;;;;;;;1.60;0.77;;;;;;;11.92;47.37;101155.78;4971184;28;20482;-82
2023/10/19 07:23:29;;;;;;;0.63;0.63;;;;;;;11.88;47.19;101157.06;4957217;28;20487;-79
2023/10/19 07:25:56;;;;;;;0.30;0.30;;;;;;;11.83;47.24;101156.75;4939790;28;20436;-79
2023/10/19 07:28:26;;;;;;;1.05;1.05;;;;;;;11.75;47.34;101160.22;4972098;28;20486;-79
2023/10/19 07:30:59;;;;;;;0.60;0.57;;;;;;;11.99;47.17;101155.91;4957313;28;20448;-83
2023/10/19 07:33:52;;;;;;;0.50;0.50;;;;;;;12.16;47.03;101143.44;5030417;28;20382;-83
2023/10/19 07:36:18;;;;;;;0.30;0.30;;;;;;;12.23;46.69;101144.41;5013652;28;20786;-80
2023/10/19 07:38:46;;;;;;;0.52;0.52;;;;;;;12.43;46.49;101139.53;5013510;28;20953;-79
2023/10/19 07:41:13;;;;;;;0.20;0.20;;;;;;;12.37;46.46;101140.19;5029585;28;20999;-79
2023/10/19 07:44:00;;;;;;;0.35;0.35;;;;;;;12.24;46.66;101135.44;5030590;28;20428;-84
2023/10/19 07:46:26;;;;;;;0.80;0.70;;;;;;;12.47;46.51;101132.88;5031761;28;20919;-79
2023/10/19 07:48:56;;;;;;;2.40;1.90;;;;;;;12.62;46.17;101131.16;5021247;28;20392;-78
2023/10/19 07:51:23;;;;;;;0.20;0.20;;;;;;;12.86;45.93;101134.69;5011734;28;20867;-79
2023/10/19 07:53:48;;;;;;;3.78;0.70;;;;;;;12.95;45.63;101135.47;5026388;28;20830;-80
2023/10/19 07:56:14;;;;;;;0.30;0.30;;;;;;;13.16;45.51;101134.81;5027692;28;20891;-81
2023/10/19 07:58:42;;;;;;;0.40;0.40;;;;;;;13.16;45.33;101135.69;5011342;28;20392;-79
2023/10/19 08:01:08;;;;;;;2.00;1.30;;;;;;;13.28;45.34;101133.41;5012529;28;20388;-78
2023/10/19 08:03:36;;;;;;;0.55;0.50;;;;;;;13.40;45.16;101125.88;5012107;28;20399;-79
2023/10/19 08:06:04;;;;;;;0.25;0.25;;;;;;;13.52;45.11;101120.94;5010813;28;20384;-82
2023/10/19 08:08:35;;;;;;;0.40;0.40;;;;;;;13.68;44.77;101114.66;5026166;28;20412;-79
2023/10/19 08:11:01;;;;;;;0.30;0.30;;;;;;;13.88;44.67;101125.63;5011775;28;20404;-78
2023/10/19 08:13:29;;;;;;;0.20;0.20;;;;;;;14.01;44.53;101122.31;5025972;28;20763;-78
2023/10/19 08:15:57;;;;;;;0.30;0.30;;;;;;;14.04;44.08;101124.63;5009910;28;20894;-78
2023/10/19 08:18:31;;;;;;;4.90;0.50;;;;;;;14.07;44.39;101121.63;5010270;28;20392;-79
2023/10/19 08:21:05;;;;;;;0.30;0.30;;;;;;;14.07;44.35;101109.09;5010372;28;20829;-79
2023/10/19 08:23:31;;;;;;;0.40;0.32;;;;;;;14.10;44.32;101110.59;5026452;28;21472;-78
2023/10/19 08:25:58;;;;;;;0.35;0.35;;;;;;;14.28;44.34;101099.56;5026067;28;20392;-78
2023/10/19 08:28:27;;;;;;;0.20;0.20;;;;;;;14.39;43.87;101106.25;5010289;28;20403;-78
2023/10/19 08:30:56;;;;;;;0.13;0.13;;;;;;;14.56;43.71;101102.34;5009396;28;20946;-78
2023/10/19 08:33:26;;;;;;;0.93;0.93;;;;;;;14.49;43.63;101107.59;5032168;28;20399;-79
2023/10/19 08:36:26;;;;;;;0.20;0.20;;;;;;;14.50;43.75;101101.25;5032069;28;20400;-80
2023/10/19 08:38:53;;;;;;;0.25;0.25;;;;;;;14.45;43.41;101094.84;5031860;28;20937;-79
2023/10/19 08:41:25;;;;;;;0.45;0.45;;;;;;;14.34;43.88;101088.97;5048494;28;20395;-80
2023/10/19 08:43:51;;;;;;;1.27;0.90;;;;;;;14.68;43.48;101098.22;5028789;28;20402;-78
2023/10/19 08:46:18;;;;;;;0.30;0.30;;;;;;;14.94;43.41;101102.19;5012752;28;20455;-83
2023/10/19 08:48:44;;;;;;;1.40;1.30;;;;;;;15.09;43.14;101099.50;5012515;28;20852;-78
2023/10/19 08:51:13;;;;;;;0.40;0.40;;;;;;;15.10;43.27;101101.13;5012367;28;20463;-78
2023/10/19 08:53:44;;;;;;;0.52;0.52;;;;;;;15.20;43.06;101100.84;5012231;28;20398;-78
2023/10/19 08:56:12;;;;;;;0.60;0.60;;;;;;;15.38;42.85;101095.84;5011698;28;20413;-79
2023/10/19 08:58:39;;;;;;;0.10;0.10;;;;;;;15.24;42.60;101089.56;5028571;28;20390;-79
2023/10/19 09:01:09;;;;;;;0.30;0.30;;;;;;;15.31;42.39;101088.81;5019723;28;20967;-79
2023/10/19 09:03:40;;;;;;;0.30;0.30;;;;;;;15.43;42.47;101089.91;5034308;28;20819;-78
2023/10/19 09:06:12;;;;;;;0.10;0.10;;;;;;;15.43;42.35;101082.75;4993029;28;20416;-79
2023/10/19 09:08:40;;;;;;;0.20;0.20;;;;;;;15.41;42.85;101079.47;5008677;28;20434;-79
2023/10/19 09:11:13;;;;;;;0.50;0.50;;;;;;;15.46;43.20;101078.84;5008942;28;20430;-79
2023/10/19 09:13:50;;;;;;;0.40;0.40;;;;;;;15.49;43.32;101070.47;4993395;28;20407;-78
2023/10/19 09:16:18;;;;;;;0.55;0.55;;;;;;;15.56;43.07;101065.19;4992424;28;20404;-79
2023/10/19 09:18:56;;;;;;;0.20;0.20;;;;;;;15.54;43.10;101057.34;4992007;28;20430;-81
2023/10/19 09:21:24;;;;;;;0.20;0.20;;;;;;;15.55;43.04;101064.34;5016374;28;20395;-78
2023/10/19 09:23:53;;;;;;;0.75;0.47;;;;;;;15.62;42.46;101064.41;5010780;28;20391;-79
2023/10/19 09:26:19;;;;;;;0.43;0.43;;;;;;;15.68;42.55;101067.13;5011135;28;20522;-79
2023/10/19 09:28:56;;;;;;;0.55;0.55;;;;;;;15.66;42.43;101061.16;5025515;28;20396;-79
2023/10/19 09:31:24;;;;;;;0.30;0.30;;;;;;;15.68;42.36;101052.91;4993596;28;20459;-78
2023/10/19 09:33:50;;;;;;;0.90;0.90;;;;;;;15.64;42.28;101039.13;5025712;28;20402;-79
2023/10/19 09:36:18;;;;;;;0.20;0.20;;;;;;;15.68;42.35;101044.91;5010481;28;20463;-83
2023/10/19 09:38:53;;;;;;;0.43;0.43;;;;;;;15.72;42.47;101029.28;5009513;28;20771;-78
2023/10/19 09:41:21;;;;;;;0.30;0.30;;;;;;;15.74;42.70;101028.13;5011151;28;20400;-79
2023/10/19 09:43:55;;;;;;;0.60;0.60;;;;;;;15.73;42.44;101006.91;5010336;28;20507;-79
2023/10/19 09:46:31;;;;;;;0.85;0.85;;;;;;;15.92;42.45;101016.06;5009100;28;20863;-79
2023/10/19 09:48:59;;;;;;;0.38;0.30;;;;;;;16.01;42.28;101010.38;5009874;28;20388;-79
2023/10/19 09:51:28;;;;;;;0.52;0.52;;;;;;;16.00;41.58;101023.94;5024887;28;20412;-79
2023/10/19 09:54:09;;;;;;;1.00;0.50;;;;;;;15.75;41.65;101026.25;5025352;28;20384;-82
2023/10/19 09:57:26;;;;;;;1.00;0.45;;;;;;;15.81;41.40;101020.13;5008799;28;20872;-82
2023/10/19 10:00:15;;;;;;;1.20;0.90;;;;;;;15.78;41.54;101024.03;5007882;28;20530;-78
2023/10/19 10:02:49;;;;;;;0.90;0.50;;;;;;;15.81;41.63;101014.78;5009901;28;20392;-80
2023/10/19 10:05:43;;;;;;;0.88;0.80;;;;;;;16.00;41.50;101010.56;5009538;28;20535;-79
2023/10/19 10:08:21;;;;;;;0.30;0.30;;;;;;;16.13;41.15;100999.91;5008514;28;20415;-77
2023/10/19 10:10:48;;;;;;;0.40;0.40;;;;;;;16.17;41.06;100995.00;5008243;28;20399;-77
2023/10/19 10:13:35;;;;;;;0.82;0.82;;;;;;;16.25;40.87;101008.22;5009178;28;20389;-80
2023/10/19 10:16:04;;;;;;;0.20;0.20;;;;;;;16.44;40.99;101007.44;5027170;28;20509;-79
2023/10/19 10:18:37;;;;;;;0.17;0.17;;;;;;;16.62;40.74;100998.03;5014387;28;20422;-78
2023/10/19 10:21:24;;;;;;;0.25;0.25;;;;;;;16.54;40.52;100991.00;5031062;28;20402;-79
2023/10/19 10:24:04;;;;;;;0.50;0.40;;;;;;;16.52;40.35;100987.69;5014165;28;20387;-80
2023/10/19 10:27:09;;;;;;;1.00;0.65;;;;;;;16.84;40.44;100982.63;5016257;28;20404;-79
2023/10/19 10:30:07;;;;;;;0.47;0.47;;;;;;;16.80;40.10;100978.69;5030123;28;20405;-78
2023/10/19 10:32:59;;;;;;;0.20;0.20;;;;;;;16.84;39.72;100950.50;5029859;28;20418;-79
2023/10/19 10:35:45;;;;;;;0.80;0.80;;;;;;;16.99;39.77;100964.50;5030125;28;20650;-80
2023/10/19 10:38:39;;;;;;;0.35;0.35;;;;;;;17.06;39.54;100958.34;5030206;28;20383;-78
2023/10/19 10:41:05;;;;;;;0.57;0.57;;;;;;;17.20;39.73;100957.31;5030503;28;20517;-79
2023/10/19 10:43:31;;;;;;;0.30;0.25;;;;;;;17.25;39.74;100944.09;5030015;28;21235;-80
2023/10/19 10:46:11;;;;;;;0.40;0.40;;;;;;;17.45;39.73;100928.00;5029314;28;20401;-78
2023/10/19 10:48:42;;;;;;;0.20;0.20;;;;;;;17.67;39.44;100917.00;5011329;28;20399;-78
2023/10/19 10:51:18;;;;;;;1.27;0.40;;;;;;;17.66;39.73;100918.00;5027969;28;20420;-78
2023/10/19 10:53:48;;;;;;;0.40;0.40;;;;;;;17.67;39.48;100907.09;5027981;28;20383;-79
2023/10/19 10:56:16;;;;;;;0.20;0.20;;;;;;;17.82;39.49;100916.72;5011204;28;20400;-79
2023/10/19 10:58:45;;;;;;;0.63;0.63;;;;;;;17.84;39.51;100896.69;5011051;28;20380;-80
2023/10/19 11:01:14;;;;;;;0.20;0.20;;;;;;;17.86;39.35;100905.41;5013028;28;20396;-80
2023/10/19 11:03:48;;;;;;;0.20;0.20;;;;;;;18.02;40.18;100889.84;5012771;28;20384;-84
2023/10/19 11:06:23;;;;;;;0.15;0.15;;;;;;;18.50;39.88;100887.44;5021911;28;20379;-80
2023/10/19 11:08:51;;;;;;;0.20;0.20;;;;;;;18.51;39.21;100878.38;5020620;28;20392;-79
2023/10/19 11:11:16;;;;;;;0.30;0.30;;;;;;;18.38;38.86;100875.75;5012568;28;20842;-77
2023/10/19 11:13:43;;;;;;;0.85;0.77;;;;;;;18.26;39.62;100864.91;5025507;28;20443;-78
2023/10/19 11:16:09;;;;;;;0.30;0.30;;;;;;;18.20;39.32;100852.34;5011913;28;20450;-76
2023/10/19 11:18:42;;;;;;;0.20;0.20;;;;;;;18.06;39.17;100853.47;5010678;28;20388;-78
2023/10/19 11:21:18;;;;;;;0.30;0.30;;;;;;;17.95;39.59;100849.63;5009682;28;20899;-78
2023/10/19 11:23:56;;;;;;;0.30;0.30;;;;;;;18.06;39.43;100846.28;5011846;28;20894;-81
2023/10/19 11:26:27;;;;;;;0.30;0.30;;;;;;;18.05;39.15;100833.88;5012164;28;20391;-78
2023/10/19 11:29:09;;;;;;;0.20;0.20;;;;;;;18.10;39.01;100838.63;5031644;28;20485;-78
2023/10/19 11:31:40;;;;;;;0.60;0.60;;;;;;;18.07;38.86;100833.69;5032383;28;20427;-78
2023/10/19 11:34:07;;;;;;;0.82;0.82;;;;;;;18.02;38.66;100823.59;5032243;28;20412;-78
2023/10/19 11:36:34;;;;;;;0.20;0.20;;;;;;;17.87;38.81;100813.16;5049817;28;20868;-81
2023/10/19 11:39:08;;;;;;;0.25;0.25;;;;;;;18.05;38.54;100807.06;5032186;28;20389;-79
2023/10/19 11:41:34;;;;;;;0.20;0.20;;;;;;;18.04;38.41;100794.72;5032254;28;20384;-78
2023/10/19 11:44:01;;;;;;;0.60;0.60;;;;;;;18.09;38.33;100796.72;5031888;28;20764;-80
2023/10/19 11:46:27;;;;;;;0.27;0.27;;;;;;;18.10;38.25;100819.84;5015590;28;20494;-78
2023/10/19 11:48:57;;;;;;;0.30;0.30;;;;;;;18.14;38.12;100811.13;5032083;28;20444;-79
2023/10/19 11:51:28;;;;;;;0.20;0.20;;;;;;;18.29;38.00;100805.47;5033340;28;20413;-79
2023/10/19 11:53:53;;;;;;;0.30;0.30;;;;;;;18.49;37.94;100799.06;5032121;28;20393;-79
2023/10/19 11:56:20;;;;;;;0.65;0.65;;;;;;;18.53;37.54;100787.69;5030898;22;20432;-78
2023/10/19 11:58:51;;;;;;;0.27;0.27;;;;;;;18.31;37.77;100792.63;5023243;28;20588;-80
2023/10/19 12:01:17;;;;;;;0.70;0.70;;;;;;;18.43;37.66;100781.19;5020333;28;20418;-79
2023/10/19 12:03:48;;;;;;;0.30;0.30;;;;;;;18.41;37.42;100792.13;5029901;28;20523;-79